sensor_id;sensor_type;location;lat;lon;timestamp;P1;durP1;ratioP1;P2;durP2;ratioP2
15616;SDS011;7908;51.688;7.130;2023-10-13T03:58:31;1365.00;;;999.90;;
15616;SDS011;7908;51.688;7.130;2023-10-13T04:01:07;1359.60;;;999.90;;
15616;SDS011;7908;51.688;7.130;2023-10-13T04:08:01;1353.50;;;999.90;;
15616;SDS011;7908;51.688;7.130;2023-10-13T04:10:51;1346.93;;;999.90;;
15616;SDS011;7908;51.688;7.130;2023-10-13T04:13:50;1352.10;;;999.90;;
15616;SDS011;7908;51.688;7.130;2023-10-13T04:16:35;1362.43;;;999.90;;
15616;SDS011;7908;51.688;7.130;2023-10-13T04:19:17;1342.40;;;999.90;;
15616;SDS011;7908;51.688;7.130;2023-10-13T04:21:56;1343.17;;;999.90;;
15616;SDS011;7908;51.688;7.130;2023-10-13T04:24:40;1323.97;;;999.90;;
15616;SDS011;7908;51.688;7.130;2023-10-13T04:27:32;1352.03;;;999.90;;
15616;SDS011;7908;51.688;7.130;2023-10-13T04:30:21;1330.53;;;999.90;;
15616;SDS011;7908;51.688;7.130;2023-10-13T04:33:04;1329.23;;;999.90;;
15616;SDS011;7908;51.688;7.130;2023-10-13T04:36:03;1347.70;;;999.90;;
15616;SDS011;7908;51.688;7.130;2023-10-13T04:38:40;1336.17;;;999.90;;
15616;SDS011;7908;51.688;7.130;2023-10-13T04:41:27;1337.33;;;999.90;;
15616;SDS011;7908;51.688;7.130;2023-10-13T04:44:21;1358.53;;;999.90;;
15616;SDS011;7908;51.688;7.130;2023-10-13T04:58:26;1324.53;;;999.90;;
15616;SDS011;7908;51.688;7.130;2023-10-13T05:02:08;1358.30;;;999.90;;
15616;SDS011;7908;51.688;7.130;2023-10-13T05:09:21;886.37;;;801.10;;
15616;SDS011;7908;51.688;7.130;2023-10-13T05:12:09;1362.60;;;999.90;;
15616;SDS011;7908;51.688;7.130;2023-10-13T05:15:06;1360.20;;;999.90;;
15616;SDS011;7908;51.688;7.130;2023-10-13T05:18:23;1344.27;;;999.90;;
15616;SDS011;7908;51.688;7.130;2023-10-13T05:21:21;1355.53;;;999.90;;
15616;SDS011;7908;51.688;7.130;2023-10-13T05:24:15;1356.77;;;999.90;;
15616;SDS011;7908;51.688;7.130;2023-10-13T05:27:23;1350.90;;;999.90;;
15616;SDS011;7908;51.688;7.130;2023-10-13T05:34:22;1353.07;;;999.90;;
15616;SDS011;7908;51.688;7.130;2023-10-13T05:37:30;1327.57;;;999.90;;
15616;SDS011;7908;51.688;7.130;2023-10-13T05:40:24;1345.90;;;999.90;;
15616;SDS011;7908;51.688;7.130;2023-10-13T05:43:12;1342.67;;;999.90;;
15616;SDS011;7908;51.688;7.130;2023-10-13T05:46:08;1356.10;;;999.90;;
15616;SDS011;7908;51.688;7.130;2023-10-13T09:58:12;1195.50;;;999.90;;
15616;SDS011;7908;51.688;7.130;2023-10-13T10:00:47;1249.47;;;999.90;;
15616;SDS011;7908;51.688;7.130;2023-10-13T10:03:24;1097.00;;;987.67;;
15616;SDS011;7908;51.688;7.130;2023-10-13T10:06:08;1193.30;;;999.90;;
15616;SDS011;7908;51.688;7.130;2023-10-13T10:08:44;1095.40;;;986.53;;
15616;SDS011;7908;51.688;7.130;2023-10-13T10:11:35;1166.23;;;999.90;;
15616;SDS011;7908;51.688;7.130;2023-10-13T10:14:34;1153.07;;;999.90;;
15616;SDS011;7908;51.688;7.130;2023-10-13T10:17:21;1012.43;;;916.50;;
15616;SDS011;7908;51.688;7.130;2023-10-13T10:19:56;974.47;;;882.70;;
15616;SDS011;7908;51.688;7.130;2023-10-13T10:22:33;1106.00;;;993.63;;
15616;SDS011;7908;51.688;7.130;2023-10-13T10:25:03;1173.33;;;999.90;;
15616;SDS011;7908;51.688;7.130;2023-10-13T10:27:54;1094.10;;;987.70;;
15616;SDS011;7908;51.688;7.130;2023-10-13T10:30:26;1147.70;;;999.90;;
15616;SDS011;7908;51.688;7.130;2023-10-13T10:32:56;898.07;;;813.13;;
15616;SDS011;7908;51.688;7.130;2023-10-13T10:35:28;852.13;;;768.87;;
15616;SDS011;7908;51.688;7.130;2023-10-13T10:38:07;1093.27;;;986.30;;
15616;SDS011;7908;51.688;7.130;2023-10-13T10:40:49;827.73;;;746.10;;
15616;SDS011;7908;51.688;7.130;2023-10-13T10:43:25;1016.50;;;922.93;;
15616;SDS011;7908;51.688;7.130;2023-10-13T10:46:01;1051.07;;;953.57;;
15616;SDS011;7908;51.688;7.130;2023-10-13T10:48:33;899.00;;;813.30;;
15616;SDS011;7908;51.688;7.130;2023-10-13T10:51:05;843.97;;;761.93;;
15616;SDS011;7908;51.688;7.130;2023-10-13T10:53:41;817.07;;;735.47;;
15616;SDS011;7908;51.688;7.130;2023-10-13T10:56:13;926.97;;;840.03;;
15616;SDS011;7908;51.688;7.130;2023-10-13T10:59:04;950.37;;;861.50;;
15616;SDS011;7908;51.688;7.130;2023-10-13T11:01:44;973.30;;;882.67;;
15616;SDS011;7908;51.688;7.130;2023-10-13T11:04:18;962.23;;;871.10;;
15616;SDS011;7908;51.688;7.130;2023-10-13T11:07:00;1052.90;;;955.50;;
15616;SDS011;7908;51.688;7.130;2023-10-13T11:09:32;1036.10;;;940.57;;
15616;SDS011;7908;51.688;7.130;2023-10-13T11:12:09;1068.90;;;970.23;;
15616;SDS011;7908;51.688;7.130;2023-10-13T11:14:43;846.87;;;765.07;;
15616;SDS011;7908;51.688;7.130;2023-10-13T11:17:21;878.13;;;794.53;;
15616;SDS011;7908;51.688;7.130;2023-10-13T11:19:53;885.30;;;801.93;;
15616;SDS011;7908;51.688;7.130;2023-10-13T11:22:23;847.43;;;765.80;;
15616;SDS011;7908;51.688;7.130;2023-10-13T11:25:03;875.70;;;792.40;;
15616;SDS011;7908;51.688;7.130;2023-10-13T11:27:37;866.83;;;784.13;;
15616;SDS011;7908;51.688;7.130;2023-10-13T11:30:23;879.57;;;796.20;;
15616;SDS011;7908;51.688;7.130;2023-10-13T11:32:58;629.17;;;569.63;;
15616;SDS011;7908;51.688;7.130;2023-10-13T11:35:33;1127.70;;;999.90;;
15616;SDS011;7908;51.688;7.130;2023-10-13T11:38:23;892.33;;;807.40;;
15616;SDS011;7908;51.688;7.130;2023-10-13T11:40:57;1051.57;;;954.17;;
15616;SDS011;7908;51.688;7.130;2023-10-13T11:43:43;892.73;;;809.47;;
15616;SDS011;7908;51.688;7.130;2023-10-13T11:46:27;870.53;;;787.63;;
15616;SDS011;7908;51.688;7.130;2023-10-13T11:49:15;900.83;;;815.93;;
15616;SDS011;7908;51.688;7.130;2023-10-13T11:51:59;888.23;;;803.77;;
15616;SDS011;7908;51.688;7.130;2023-10-13T11:54:43;828.20;;;746.03;;
15616;SDS011;7908;51.688;7.130;2023-10-13T11:57:14;902.77;;;818.17;;
15616;SDS011;7908;51.688;7.130;2023-10-13T11:59:47;919.27;;;833.83;;
15616;SDS011;7908;51.688;7.130;2023-10-13T12:02:26;890.57;;;806.10;;
15616;SDS011;7908;51.688;7.130;2023-10-13T12:05:14;942.77;;;855.73;;
15616;SDS011;7908;51.688;7.130;2023-10-13T12:07:54;1098.87;;;989.73;;
15616;SDS011;7908;51.688;7.130;2023-10-13T12:10:31;976.80;;;887.13;;
15616;SDS011;7908;51.688;7.130;2023-10-13T12:13:16;1095.00;;;987.50;;
15616;SDS011;7908;51.688;7.130;2023-10-13T12:15:46;1162.77;;;999.90;;
15616;SDS011;7908;51.688;7.130;2023-10-13T12:18:19;1164.90;;;999.90;;
15616;SDS011;7908;51.688;7.130;2023-10-13T12:20:51;1098.77;;;989.73;;
15616;SDS011;7908;51.688;7.130;2023-10-13T12:23:21;1159.03;;;999.90;;
15616;SDS011;7908;51.688;7.130;2023-10-13T12:25:58;1191.07;;;999.90;;
15616;SDS011;7908;51.688;7.130;2023-10-13T12:28:33;1193.43;;;999.90;;
15616;SDS011;7908;51.688;7.130;2023-10-13T12:31:08;626.97;;;565.87;;
15616;SDS011;7908;51.688;7.130;2023-10-13T12:33:39;941.50;;;853.97;;
15616;SDS011;7908;51.688;7.130;2023-10-13T12:36:10;964.07;;;875.80;;
15616;SDS011;7908;51.688;7.130;2023-10-13T12:38:42;979.63;;;890.17;;
15616;SDS011;7908;51.688;7.130;2023-10-13T12:41:28;945.77;;;857.50;;
15616;SDS011;7908;51.688;7.130;2023-10-13T12:44:14;944.70;;;856.90;;
15616;SDS011;7908;51.688;7.130;2023-10-13T12:47:01;963.90;;;875.33;;
15616;SDS011;7908;51.688;7.130;2023-10-13T12:49:48;972.77;;;883.87;;
15616;SDS011;7908;51.688;7.130;2023-10-13T12:52:33;959.97;;;870.23;;
15616;SDS011;7908;51.688;7.130;2023-10-13T12:55:03;965.60;;;876.37;;
15616;SDS011;7908;51.688;7.130;2023-10-13T12:57:36;852.70;;;768.97;;
15616;SDS011;7908;51.688;7.130;2023-10-13T13:00:11;929.80;;;842.97;;
15616;SDS011;7908;51.688;7.130;2023-10-13T13:03:00;915.63;;;828.57;;
15616;SDS011;7908;51.688;7.130;2023-10-13T13:05:39;897.33;;;811.33;;
15616;SDS011;7908;51.688;7.130;2023-10-13T13:08:14;934.20;;;846.43;;
15616;SDS011;7908;51.688;7.130;2023-10-13T13:10:50;960.17;;;871.90;;
15616;SDS011;7908;51.688;7.130;2023-10-13T13:13:19;864.17;;;780.00;;
15616;SDS011;7908;51.688;7.130;2023-10-13T13:15:52;948.90;;;860.73;;
15616;SDS011;7908;51.688;7.130;2023-10-13T13:18:21;779.23;;;699.07;;
15616;SDS011;7908;51.688;7.130;2023-10-13T13:20:51;829.70;;;747.30;;
15616;SDS011;7908;51.688;7.130;2023-10-13T13:23:24;863.30;;;780.03;;
15616;SDS011;7908;51.688;7.130;2023-10-13T13:25:54;939.10;;;851.33;;
15616;SDS011;7908;51.688;7.130;2023-10-13T13:28:25;923.40;;;836.33;;
15616;SDS011;7908;51.688;7.130;2023-10-13T13:30:56;869.40;;;784.60;;
15616;SDS011;7908;51.688;7.130;2023-10-13T13:33:26;848.37;;;764.40;;
15616;SDS011;7908;51.688;7.130;2023-10-13T13:36:01;953.27;;;864.50;;
15616;SDS011;7908;51.688;7.130;2023-10-13T13:38:33;970.03;;;880.87;;
15616;SDS011;7908;51.688;7.130;2023-10-13T13:41:04;881.17;;;795.40;;
15616;SDS011;7908;51.688;7.130;2023-10-13T13:43:42;949.77;;;859.03;;
15616;SDS011;7908;51.688;7.130;2023-10-13T13:46:25;823.87;;;739.07;;
15616;SDS011;7908;51.688;7.130;2023-10-13T13:49:00;939.50;;;850.03;;
15616;SDS011;7908;51.688;7.130;2023-10-13T13:51:33;845.30;;;761.47;;
15616;SDS011;7908;51.688;7.130;2023-10-13T13:54:06;933.07;;;845.43;;
15616;SDS011;7908;51.688;7.130;2023-10-13T13:56:35;980.43;;;890.13;;
15616;SDS011;7908;51.688;7.130;2023-10-13T13:59:06;956.97;;;868.70;;
15616;SDS011;7908;51.688;7.130;2023-10-13T14:01:36;977.37;;;888.17;;
15616;SDS011;7908;51.688;7.130;2023-10-13T14:04:08;959.40;;;871.33;;
15616;SDS011;7908;51.688;7.130;2023-10-13T14:06:38;973.53;;;884.30;;
15616;SDS011;7908;51.688;7.130;2023-10-13T14:09:08;908.00;;;822.00;;
15616;SDS011;7908;51.688;7.130;2023-10-13T14:11:43;937.47;;;850.17;;
15616;SDS011;7908;51.688;7.130;2023-10-13T14:14:29;977.63;;;888.40;;
15616;SDS011;7908;51.688;7.130;2023-10-13T14:17:00;965.67;;;878.33;;
15616;SDS011;7908;51.688;7.130;2023-10-13T14:19:36;967.57;;;879.80;;
15616;SDS011;7908;51.688;7.130;2023-10-13T14:22:09;986.13;;;897.63;;
15616;SDS011;7908;51.688;7.130;2023-10-13T14:24:42;941.67;;;854.63;;
15616;SDS011;7908;51.688;7.130;2023-10-13T14:27:21;978.83;;;889.87;;
15616;SDS011;7908;51.688;7.130;2023-10-13T14:29:55;963.87;;;875.97;;
15616;SDS011;7908;51.688;7.130;2023-10-13T14:32:27;921.67;;;835.83;;
15616;SDS011;7908;51.688;7.130;2023-10-13T14:34:57;949.23;;;862.13;;
15616;SDS011;7908;51.688;7.130;2023-10-13T14:37:27;987.00;;;898.27;;
15616;SDS011;7908;51.688;7.130;2023-10-13T14:40:00;1098.37;;;990.07;;
15616;SDS011;7908;51.688;7.130;2023-10-13T14:42:31;1060.33;;;962.80;;
15616;SDS011;7908;51.688;7.130;2023-10-13T14:45:02;967.07;;;878.43;;
15616;SDS011;7908;51.688;7.130;2023-10-13T14:47:39;1267.80;;;999.90;;
15616;SDS011;7908;51.688;7.130;2023-10-13T14:50:09;1183.07;;;999.90;;
15616;SDS011;7908;51.688;7.130;2023-10-13T14:52:44;1275.70;;;999.90;;
15616;SDS011;7908;51.688;7.130;2023-10-13T14:55:15;1097.37;;;989.53;;
15616;SDS011;7908;51.688;7.130;2023-10-13T14:57:49;1137.87;;;999.90;;
15616;SDS011;7908;51.688;7.130;2023-10-13T15:00:18;1173.50;;;999.90;;
15616;SDS011;7908;51.688;7.130;2023-10-13T15:02:52;1238.57;;;999.90;;
15616;SDS011;7908;51.688;7.130;2023-10-13T15:05:22;1309.10;;;999.90;;
15616;SDS011;7908;51.688;7.130;2023-10-13T15:07:51;1297.57;;;999.90;;
15616;SDS011;7908;51.688;7.130;2023-10-13T15:10:22;1273.37;;;999.90;;
15616;SDS011;7908;51.688;7.130;2023-10-13T15:12:54;1237.07;;;999.90;;
15616;SDS011;7908;51.688;7.130;2023-10-13T15:15:26;1265.30;;;999.90;;
15616;SDS011;7908;51.688;7.130;2023-10-13T15:17:59;1285.17;;;999.90;;
15616;SDS011;7908;51.688;7.130;2023-10-13T15:20:28;1306.23;;;999.90;;
15616;SDS011;7908;51.688;7.130;2023-10-13T15:22:58;1300.50;;;999.90;;
15616;SDS011;7908;51.688;7.130;2023-10-13T15:25:30;1273.10;;;999.90;;
15616;SDS011;7908;51.688;7.130;2023-10-13T15:28:08;1256.60;;;999.90;;
15616;SDS011;7908;51.688;7.130;2023-10-13T15:30:37;1268.47;;;999.90;;
15616;SDS011;7908;51.688;7.130;2023-10-13T15:33:19;1269.37;;;999.90;;
15616;SDS011;7908;51.688;7.130;2023-10-13T15:35:49;1288.40;;;999.90;;
15616;SDS011;7908;51.688;7.130;2023-10-13T15:38:18;1291.27;;;999.90;;
15616;SDS011;7908;51.688;7.130;2023-10-13T15:40:51;1284.23;;;999.90;;
15616;SDS011;7908;51.688;7.130;2023-10-13T15:43:22;804.70;;;728.07;;
15616;SDS011;7908;51.688;7.130;2023-10-13T15:45:51;1310.60;;;999.90;;
15616;SDS011;7908;51.688;7.130;2023-10-13T15:48:40;1279.00;;;999.90;;
15616;SDS011;7908;51.688;7.130;2023-10-13T15:51:24;1297.87;;;999.90;;
15616;SDS011;7908;51.688;7.130;2023-10-13T15:53:53;1283.67;;;999.90;;
15616;SDS011;7908;51.688;7.130;2023-10-13T15:56:29;1296.67;;;999.90;;
15616;SDS011;7908;51.688;7.130;2023-10-13T15:58:59;1284.97;;;999.90;;
15616;SDS011;7908;51.688;7.130;2023-10-13T16:01:30;1310.13;;;999.90;;
15616;SDS011;7908;51.688;7.130;2023-10-13T16:04:00;1313.97;;;999.90;;
15616;SDS011;7908;51.688;7.130;2023-10-13T16:06:38;1300.10;;;999.90;;
15616;SDS011;7908;51.688;7.130;2023-10-13T16:09:10;1322.73;;;999.90;;
15616;SDS011;7908;51.688;7.130;2023-10-13T16:11:43;1320.37;;;999.90;;
15616;SDS011;7908;51.688;7.130;2023-10-13T16:14:13;1275.13;;;999.90;;
15616;SDS011;7908;51.688;7.130;2023-10-13T16:16:44;1324.60;;;999.90;;
15616;SDS011;7908;51.688;7.130;2023-10-13T16:19:15;1296.20;;;999.90;;
15616;SDS011;7908;51.688;7.130;2023-10-13T16:21:49;1336.30;;;999.90;;
15616;SDS011;7908;51.688;7.130;2023-10-13T16:24:19;1344.00;;;999.90;;
15616;SDS011;7908;51.688;7.130;2023-10-13T16:26:53;1318.07;;;999.90;;
15616;SDS011;7908;51.688;7.130;2023-10-13T16:29:23;1333.17;;;999.90;;
15616;SDS011;7908;51.688;7.130;2023-10-13T16:31:52;1324.13;;;999.90;;
15616;SDS011;7908;51.688;7.130;2023-10-13T16:34:21;1336.93;;;999.90;;
15616;SDS011;7908;51.688;7.130;2023-10-13T16:36:52;1340.83;;;999.90;;
15616;SDS011;7908;51.688;7.130;2023-10-13T16:39:22;1362.27;;;999.90;;
15616;SDS011;7908;51.688;7.130;2023-10-13T16:41:54;1319.30;;;999.90;;
15616;SDS011;7908;51.688;7.130;2023-10-13T16:44:23;1351.03;;;999.90;;
15616;SDS011;7908;51.688;7.130;2023-10-13T16:46:53;1357.97;;;999.90;;
15616;SDS011;7908;51.688;7.130;2023-10-13T16:49:28;1323.07;;;999.90;;
15616;SDS011;7908;51.688;7.130;2023-10-13T16:51:57;1338.77;;;999.90;;
15616;SDS011;7908;51.688;7.130;2023-10-13T16:54:27;1345.57;;;999.90;;
15616;SDS011;7908;51.688;7.130;2023-10-13T16:56:59;1330.10;;;999.90;;
15616;SDS011;7908;51.688;7.130;2023-10-13T16:59:28;1324.97;;;999.90;;
15616;SDS011;7908;51.688;7.130;2023-10-13T17:01:57;1338.63;;;999.90;;
15616;SDS011;7908;51.688;7.130;2023-10-13T17:04:29;1308.87;;;999.90;;
15616;SDS011;7908;51.688;7.130;2023-10-13T17:07:03;1333.70;;;999.90;;
15616;SDS011;7908;51.688;7.130;2023-10-13T17:09:34;1347.70;;;999.90;;
15616;SDS011;7908;51.688;7.130;2023-10-13T17:12:27;1364.53;;;999.90;;
15616;SDS011;7908;51.688;7.130;2023-10-13T17:14:57;1379.03;;;999.90;;
15616;SDS011;7908;51.688;7.130;2023-10-13T17:17:26;1390.40;;;999.90;;
15616;SDS011;7908;51.688;7.130;2023-10-13T17:19:58;1374.20;;;999.90;;
15616;SDS011;7908;51.688;7.130;2023-10-13T17:22:27;1389.93;;;999.90;;
15616;SDS011;7908;51.688;7.130;2023-10-13T17:24:57;1379.23;;;999.90;;
15616;SDS011;7908;51.688;7.130;2023-10-13T17:27:32;1372.10;;;999.90;;
15616;SDS011;7908;51.688;7.130;2023-10-13T17:30:04;1393.13;;;999.90;;
15616;SDS011;7908;51.688;7.130;2023-10-13T17:32:35;1389.13;;;999.90;;
15616;SDS011;7908;51.688;7.130;2023-10-13T17:35:11;1381.13;;;999.90;;
15616;SDS011;7908;51.688;7.130;2023-10-13T17:37:41;1389.97;;;999.90;;
15616;SDS011;7908;51.688;7.130;2023-10-13T17:40:13;1397.77;;;999.90;;
15616;SDS011;7908;51.688;7.130;2023-10-13T17:42:45;1390.43;;;999.90;;
15616;SDS011;7908;51.688;7.130;2023-10-13T17:45:18;1404.93;;;999.90;;
15616;SDS011;7908;51.688;7.130;2023-10-13T17:47:48;1392.40;;;999.90;;
15616;SDS011;7908;51.688;7.130;2023-10-13T17:50:18;1387.83;;;999.90;;
15616;SDS011;7908;51.688;7.130;2023-10-13T17:52:48;1411.07;;;999.90;;
15616;SDS011;7908;51.688;7.130;2023-10-13T17:55:18;1399.67;;;999.90;;
15616;SDS011;7908;51.688;7.130;2023-10-13T17:57:49;1396.77;;;999.90;;
15616;SDS011;7908;51.688;7.130;2023-10-13T18:00:20;1396.50;;;999.90;;
15616;SDS011;7908;51.688;7.130;2023-10-13T18:02:52;1399.90;;;999.90;;
15616;SDS011;7908;51.688;7.130;2023-10-13T18:05:22;992.53;;;896.70;;
15616;SDS011;7908;51.688;7.130;2023-10-13T18:07:52;1407.43;;;999.90;;
15616;SDS011;7908;51.688;7.130;2023-10-13T18:10:26;1383.67;;;999.90;;
15616;SDS011;7908;51.688;7.130;2023-10-13T18:12:58;1401.63;;;999.90;;
15616;SDS011;7908;51.688;7.130;2023-10-13T18:15:28;1417.37;;;999.90;;
15616;SDS011;7908;51.688;7.130;2023-10-13T18:17:58;1401.43;;;999.90;;
15616;SDS011;7908;51.688;7.130;2023-10-13T18:20:28;1423.87;;;999.90;;
15616;SDS011;7908;51.688;7.130;2023-10-13T18:22:58;1406.97;;;999.90;;
15616;SDS011;7908;51.688;7.130;2023-10-13T18:25:29;895.77;;;809.57;;
15616;SDS011;7908;51.688;7.130;2023-10-13T18:28:11;1407.20;;;999.90;;
15616;SDS011;7908;51.688;7.130;2023-10-13T18:30:43;1417.30;;;999.90;;
15616;SDS011;7908;51.688;7.130;2023-10-13T18:33:14;1384.20;;;999.90;;
15616;SDS011;7908;51.688;7.130;2023-10-13T18:35:43;1397.17;;;999.90;;
15616;SDS011;7908;51.688;7.130;2023-10-13T18:38:12;1392.53;;;999.90;;
15616;SDS011;7908;51.688;7.130;2023-10-13T18:40:42;1383.07;;;999.90;;
15616;SDS011;7908;51.688;7.130;2023-10-13T18:43:15;1408.63;;;999.90;;
15616;SDS011;7908;51.688;7.130;2023-10-13T18:45:45;980.20;;;886.10;;
15616;SDS011;7908;51.688;7.130;2023-10-13T18:48:14;1407.47;;;999.90;;
15616;SDS011;7908;51.688;7.130;2023-10-13T18:50:44;1387.70;;;999.90;;
15616;SDS011;7908;51.688;7.130;2023-10-13T18:53:13;1403.97;;;999.90;;
15616;SDS011;7908;51.688;7.130;2023-10-13T18:55:42;1407.67;;;999.90;;
15616;SDS011;7908;51.688;7.130;2023-10-13T18:58:15;1399.50;;;999.90;;
15616;SDS011;7908;51.688;7.130;2023-10-13T19:00:47;1393.53;;;999.90;;
15616;SDS011;7908;51.688;7.130;2023-10-13T19:03:17;1385.50;;;999.90;;
15616;SDS011;7908;51.688;7.130;2023-10-13T19:05:46;1391.00;;;999.90;;
15616;SDS011;7908;51.688;7.130;2023-10-13T19:08:26;1399.10;;;999.90;;
15616;SDS011;7908;51.688;7.130;2023-10-13T19:11:01;979.17;;;883.67;;
15616;SDS011;7908;51.688;7.130;2023-10-13T19:13:36;1390.57;;;999.90;;
15616;SDS011;7908;51.688;7.130;2023-10-13T19:16:07;1394.03;;;999.90;;
15616;SDS011;7908;51.688;7.130;2023-10-13T19:18:36;1413.90;;;999.90;;
15616;SDS011;7908;51.688;7.130;2023-10-13T19:21:08;1400.03;;;999.90;;
15616;SDS011;7908;51.688;7.130;2023-10-13T19:23:41;1395.27;;;999.90;;
15616;SDS011;7908;51.688;7.130;2023-10-13T19:26:13;1396.57;;;999.90;;
15616;SDS011;7908;51.688;7.130;2023-10-13T19:28:44;1391.40;;;999.90;;
15616;SDS011;7908;51.688;7.130;2023-10-13T19:31:14;1399.40;;;999.90;;
15616;SDS011;7908;51.688;7.130;2023-10-13T19:33:43;1403.17;;;999.90;;
15616;SDS011;7908;51.688;7.130;2023-10-13T19:36:20;1405.93;;;999.90;;
15616;SDS011;7908;51.688;7.130;2023-10-13T19:38:53;1410.93;;;999.90;;
15616;SDS011;7908;51.688;7.130;2023-10-13T19:41:24;1426.83;;;999.90;;
15616;SDS011;7908;51.688;7.130;2023-10-13T19:43:56;1422.40;;;999.90;;
15616;SDS011;7908;51.688;7.130;2023-10-13T19:46:29;987.20;;;890.63;;
15616;SDS011;7908;51.688;7.130;2023-10-13T19:48:59;1406.60;;;999.90;;
15616;SDS011;7908;51.688;7.130;2023-10-13T19:51:31;1414.77;;;999.90;;
15616;SDS011;7908;51.688;7.130;2023-10-13T19:54:04;1403.03;;;999.90;;
15616;SDS011;7908;51.688;7.130;2023-10-13T19:56:34;1406.57;;;999.90;;
15616;SDS011;7908;51.688;7.130;2023-10-13T19:59:08;1404.03;;;999.90;;
15616;SDS011;7908;51.688;7.130;2023-10-13T20:01:38;1404.73;;;999.90;;
15616;SDS011;7908;51.688;7.130;2023-10-13T20:04:09;1380.33;;;999.90;;
15616;SDS011;7908;51.688;7.130;2023-10-13T20:06:40;1400.47;;;999.90;;
15616;SDS011;7908;51.688;7.130;2023-10-13T20:09:13;1391.43;;;999.90;;
15616;SDS011;7908;51.688;7.130;2023-10-13T20:11:51;1376.13;;;999.90;;
15616;SDS011;7908;51.688;7.130;2023-10-13T20:14:25;1385.40;;;999.90;;
15616;SDS011;7908;51.688;7.130;2023-10-13T20:16:54;1380.57;;;999.90;;
15616;SDS011;7908;51.688;7.130;2023-10-13T20:19:24;1390.30;;;999.90;;
15616;SDS011;7908;51.688;7.130;2023-10-13T20:21:55;1400.73;;;999.90;;
15616;SDS011;7908;51.688;7.130;2023-10-13T20:24:24;1385.73;;;999.90;;
15616;SDS011;7908;51.688;7.130;2023-10-13T20:26:54;1388.27;;;999.90;;
15616;SDS011;7908;51.688;7.130;2023-10-13T20:29:24;1394.93;;;999.90;;
15616;SDS011;7908;51.688;7.130;2023-10-13T20:31:55;1400.43;;;999.90;;
15616;SDS011;7908;51.688;7.130;2023-10-13T20:34:25;1388.70;;;999.90;;
15616;SDS011;7908;51.688;7.130;2023-10-13T20:36:58;1386.33;;;999.90;;
15616;SDS011;7908;51.688;7.130;2023-10-13T20:39:40;1389.37;;;999.90;;
15616;SDS011;7908;51.688;7.130;2023-10-13T20:42:11;1374.80;;;999.90;;
15616;SDS011;7908;51.688;7.130;2023-10-13T20:44:44;1389.57;;;999.90;;
15616;SDS011;7908;51.688;7.130;2023-10-13T20:47:13;1384.73;;;999.90;;
15616;SDS011;7908;51.688;7.130;2023-10-13T20:49:45;1372.73;;;999.90;;
15616;SDS011;7908;51.688;7.130;2023-10-13T20:52:14;1393.17;;;999.90;;
15616;SDS011;7908;51.688;7.130;2023-10-13T20:54:45;1388.23;;;999.90;;
15616;SDS011;7908;51.688;7.130;2023-10-13T20:57:18;1380.33;;;999.90;;
15616;SDS011;7908;51.688;7.130;2023-10-13T20:59:50;1388.27;;;999.90;;
15616;SDS011;7908;51.688;7.130;2023-10-13T21:02:20;1390.07;;;999.90;;
15616;SDS011;7908;51.688;7.130;2023-10-13T21:04:51;1400.13;;;999.90;;
15616;SDS011;7908;51.688;7.130;2023-10-13T21:07:24;992.13;;;895.70;;
15616;SDS011;7908;51.688;7.130;2023-10-13T21:09:53;1402.20;;;999.90;;
15616;SDS011;7908;51.688;7.130;2023-10-13T21:12:23;1393.27;;;999.90;;
15616;SDS011;7908;51.688;7.130;2023-10-13T21:14:54;1367.27;;;999.90;;
15616;SDS011;7908;51.688;7.130;2023-10-13T21:17:31;1399.87;;;999.90;;
15616;SDS011;7908;51.688;7.130;2023-10-13T21:20:05;1399.50;;;999.90;;
15616;SDS011;7908;51.688;7.130;2023-10-13T21:22:36;1398.90;;;999.90;;
15616;SDS011;7908;51.688;7.130;2023-10-13T21:25:07;1406.50;;;999.90;;
15616;SDS011;7908;51.688;7.130;2023-10-13T21:27:46;1413.43;;;999.90;;
15616;SDS011;7908;51.688;7.130;2023-10-13T21:30:24;1408.13;;;999.90;;
15616;SDS011;7908;51.688;7.130;2023-10-13T21:32:54;1395.40;;;999.90;;
15616;SDS011;7908;51.688;7.130;2023-10-13T21:35:25;1401.60;;;999.90;;
15616;SDS011;7908;51.688;7.130;2023-10-13T21:37:58;1353.03;;;999.90;;
15616;SDS011;7908;51.688;7.130;2023-10-13T21:40:28;1381.97;;;999.90;;
15616;SDS011;7908;51.688;7.130;2023-10-13T21:42:58;1399.40;;;999.90;;
15616;SDS011;7908;51.688;7.130;2023-10-13T21:45:34;1400.93;;;999.90;;
15616;SDS011;7908;51.688;7.130;2023-10-13T21:48:05;1384.80;;;999.90;;
15616;SDS011;7908;51.688;7.130;2023-10-13T21:50:37;1382.33;;;999.90;;
15616;SDS011;7908;51.688;7.130;2023-10-13T21:53:09;1379.73;;;999.90;;
15616;SDS011;7908;51.688;7.130;2023-10-13T21:55:40;1392.13;;;999.90;;
15616;SDS011;7908;51.688;7.130;2023-10-13T21:58:09;1412.07;;;999.90;;
15616;SDS011;7908;51.688;7.130;2023-10-13T22:00:41;1399.20;;;999.90;;
15616;SDS011;7908;51.688;7.130;2023-10-13T22:03:23;1384.43;;;999.90;;
15616;SDS011;7908;51.688;7.130;2023-10-13T22:05:57;1394.93;;;999.90;;
15616;SDS011;7908;51.688;7.130;2023-10-13T22:08:27;1386.57;;;999.90;;
15616;SDS011;7908;51.688;7.130;2023-10-13T22:10:57;1407.10;;;999.90;;
15616;SDS011;7908;51.688;7.130;2023-10-13T22:13:29;1389.30;;;999.90;;
15616;SDS011;7908;51.688;7.130;2023-10-13T22:16:04;1402.77;;;999.90;;
15616;SDS011;7908;51.688;7.130;2023-10-13T22:18:38;1406.87;;;999.90;;
15616;SDS011;7908;51.688;7.130;2023-10-13T22:21:12;1406.07;;;999.90;;
15616;SDS011;7908;51.688;7.130;2023-10-13T22:23:46;1424.53;;;999.90;;
15616;SDS011;7908;51.688;7.130;2023-10-13T22:26:15;1413.53;;;999.90;;
15616;SDS011;7908;51.688;7.130;2023-10-13T22:28:46;1394.57;;;999.90;;
15616;SDS011;7908;51.688;7.130;2023-10-13T22:31:18;1406.03;;;999.90;;
15616;SDS011;7908;51.688;7.130;2023-10-13T22:33:49;1402.33;;;999.90;;
15616;SDS011;7908;51.688;7.130;2023-10-13T22:36:20;1392.67;;;999.90;;
15616;SDS011;7908;51.688;7.130;2023-10-13T22:38:52;1375.33;;;999.90;;
15616;SDS011;7908;51.688;7.130;2023-10-13T22:41:25;1385.20;;;999.90;;
15616;SDS011;7908;51.688;7.130;2023-10-13T22:43:57;1385.47;;;999.90;;
15616;SDS011;7908;51.688;7.130;2023-10-13T22:46:34;1393.93;;;999.90;;
15616;SDS011;7908;51.688;7.130;2023-10-13T22:49:03;1383.13;;;999.90;;
15616;SDS011;7908;51.688;7.130;2023-10-13T22:51:32;1392.27;;;999.90;;
15616;SDS011;7908;51.688;7.130;2023-10-13T22:54:01;1393.33;;;999.90;;
15616;SDS011;7908;51.688;7.130;2023-10-13T22:56:31;1374.93;;;999.90;;
15616;SDS011;7908;51.688;7.130;2023-10-13T22:59:01;1393.13;;;999.90;;
15616;SDS011;7908;51.688;7.130;2023-10-13T23:01:34;1392.93;;;999.90;;
15616;SDS011;7908;51.688;7.130;2023-10-13T23:04:09;1385.80;;;999.90;;
15616;SDS011;7908;51.688;7.130;2023-10-13T23:06:42;1384.80;;;999.90;;
15616;SDS011;7908;51.688;7.130;2023-10-13T23:09:16;1363.97;;;999.90;;
15616;SDS011;7908;51.688;7.130;2023-10-13T23:11:52;1373.50;;;999.90;;
15616;SDS011;7908;51.688;7.130;2023-10-13T23:14:30;1374.63;;;999.90;;